Time;durP1;ratioP1;P1;durP2;ratioP2;P2;SDS_P1;SDS_P2;PMS_P1;PMS_P2;Temp;Humidity;BMP_temperature;BMP_pressure;BME280_temperature;BME280_humidity;BME280_pressure;Samples;Min_cycle;Max_cycle;Signal;HPM_P1;HPM_P2
2021/06/17 00:02:24;;;;;;;12.85;6.53;;;;;;;18.47;73.40;100127.59;5087129;28;20038;-24
2021/06/17 00:04:50;;;;;;;11.52;6.72;;;;;;;18.21;73.46;100113.28;5087606;28;20415;-24
2021/06/17 00:07:15;;;;;;;9.80;6.50;;;;;;;17.96;75.87;100128.34;5087414;28;20036;-24
2021/06/17 00:09:41;;;;;;;10.23;6.40;;;;;;;18.16;73.87;100126.75;5087337;28;20024;-24
2021/06/17 00:12:07;;;;;;;13.40;6.25;;;;;;;18.17;74.11;100125.69;5087226;28;20040;-24
2021/06/17 00:14:32;;;;;;;9.25;5.85;;;;;;;18.01;73.54;100105.94;5087389;28;20032;-24
2021/06/17 00:16:58;;;;;;;12.13;5.95;;;;;;;17.94;73.93;100108.91;5086977;28;20070;-24
2021/06/17 00:19:24;;;;;;;9.68;5.85;;;;;;;18.11;73.41;100126.75;5087334;28;20480;-24
2021/06/17 00:21:50;;;;;;;11.57;7.00;;;;;;;18.31;72.91;100134.03;5087323;28;20032;-24
2021/06/17 00:24:15;;;;;;;10.13;6.65;;;;;;;17.67;74.01;100123.38;5087197;28;20392;-25
2021/06/17 00:26:41;;;;;;;9.77;6.28;;;;;;;17.10;76.19;100115.28;5087667;28;20056;-24
2021/06/17 00:29:06;;;;;;;13.32;6.70;;;;;;;16.84;77.78;100117.81;5087252;28;20085;-24
2021/06/17 00:31:32;;;;;;;15.10;6.95;;;;;;;16.89;78.32;100125.91;5088573;28;20431;-24
2021/06/17 00:33:57;;;;;;;10.10;6.03;;;;;;;17.01;77.70;100118.44;5091383;28;20035;-24
2021/06/17 00:36:23;;;;;;;12.10;6.95;;;;;;;16.96;78.08;100112.22;5090668;28;20039;-24
2021/06/17 00:38:48;;;;;;;10.60;6.00;;;;;;;17.38;75.98;100111.38;5090643;28;20081;-24
2021/06/17 00:41:14;;;;;;;11.35;5.97;;;;;;;17.71;74.53;100098.56;5090641;28;20039;-24
2021/06/17 00:43:39;;;;;;;9.85;6.20;;;;;;;17.95;73.33;100099.72;5090707;28;20506;-24
2021/06/17 00:46:05;;;;;;;8.52;5.80;;;;;;;17.57;74.95;100114.41;5090429;28;20146;-24
2021/06/17 00:48:30;;;;;;;8.23;5.55;;;;;;;17.53;75.16;100111.47;5090806;28;20032;-24
2021/06/17 00:50:57;;;;;;;10.52;5.57;;;;;;;17.21;75.01;100079.22;5090679;28;20095;-24
2021/06/17 00:53:30;;;;;;;10.55;6.00;;;;;;;17.72;74.11;100110.97;5090516;28;20120;-24
2021/06/17 00:55:56;;;;;;;10.15;7.13;;;;;;;17.77;74.11;100102.88;5090536;28;20036;-24
2021/06/17 00:58:21;;;;;;;15.20;5.95;;;;;;;17.70;73.95;100113.13;5090261;28;20027;-24
2021/06/17 01:00:46;;;;;;;10.50;6.03;;;;;;;17.51;74.69;100083.13;5090639;28;20059;-24
2021/06/17 01:03:12;;;;;;;16.75;8.15;;;;;;;17.27;75.53;100084.38;5090486;28;20031;-24
2021/06/17 01:05:38;;;;;;;10.43;6.57;;;;;;;17.25;76.04;100102.69;5090603;28;20533;-24
2021/06/17 01:08:03;;;;;;;13.10;7.82;;;;;;;17.13;76.79;100102.09;5090033;28;20059;-24
2021/06/17 01:10:59;;;;;;;13.15;8.05;;;;;;;17.14;76.93;100098.34;5090253;28;20479;-24
2021/06/17 01:13:37;;;;;;;13.80;7.90;;;;;;;17.21;76.17;100093.50;5090835;28;20135;-24
2021/06/17 01:16:30;;;;;;;12.27;7.30;;;;;;;17.38;76.01;100095.19;5090059;28;20530;-25
2021/06/17 01:18:58;;;;;;;11.52;7.90;;;;;;;17.39;75.27;100083.38;5089718;28;20087;-24
2021/06/17 01:22:03;;;;;;;14.50;7.75;;;;;;;17.62;75.18;100101.78;5072285;28;20043;-24
2021/06/17 01:25:10;;;;;;;11.35;7.00;;;;;;;17.67;75.19;100100.97;5085947;28;20057;-24
2021/06/17 01:27:57;;;;;;;16.38;8.05;;;;;;;17.68;74.14;100095.31;5051801;28;20078;-24
2021/06/17 01:30:23;;;;;;;11.60;7.90;;;;;;;17.77;73.93;100092.91;5090070;28;20951;-24
2021/06/17 01:32:53;;;;;;;13.13;7.85;;;;;;;17.90;73.14;100088.09;5071794;28;20063;-24
2021/06/17 01:35:19;;;;;;;12.05;7.63;;;;;;;17.94;72.90;100084.63;5072190;28;20203;-24
2021/06/17 01:37:44;;;;;;;10.70;8.13;;;;;;;17.73;73.43;100096.41;5071824;28;20028;-25
2021/06/17 01:40:11;;;;;;;13.63;8.32;;;;;;;17.51;74.44;100094.72;5055232;28;20899;-24
2021/06/17 01:42:37;;;;;;;14.45;8.80;;;;;;;17.46;74.89;100092.81;5071208;28;20040;-24
2021/06/17 01:45:03;;;;;;;15.60;8.80;;;;;;;17.62;73.79;100099.06;5071612;28;20114;-24
2021/06/17 01:47:28;;;;;;;11.18;7.68;;;;;;;17.77;73.45;100092.09;5055322;28;20197;-24
2021/06/17 01:49:54;;;;;;;13.07;7.60;;;;;;;17.86;72.78;100093.25;5071389;28;20055;-24
2021/06/17 01:52:21;;;;;;;12.27;7.90;;;;;;;17.81;72.38;100091.28;5071566;28;20032;-24
2021/06/17 01:54:46;;;;;;;14.90;8.68;;;;;;;17.82;72.96;100094.81;5054887;28;20020;-24
2021/06/17 01:57:13;;;;;;;11.93;7.45;;;;;;;18.08;71.37;100087.59;5071345;28;20035;-24
2021/06/17 01:59:39;;;;;;;14.27;8.00;;;;;;;18.01;71.50;100093.25;5089232;28;20020;-24
2021/06/17 02:02:04;;;;;;;12.98;8.23;;;;;;;17.91;72.36;100092.44;5054503;28;20035;-24
2021/06/17 02:04:30;;;;;;;13.45;7.93;;;;;;;17.87;72.98;100086.75;5071111;28;20055;-24
2021/06/17 02:06:56;;;;;;;13.13;7.93;;;;;;;17.82;72.65;100095.63;5089169;28;20032;-24
2021/06/17 02:09:25;;;;;;;13.15;7.60;;;;;;;17.95;72.12;100078.13;5054637;28;20027;-24
2021/06/17 02:11:51;;;;;;;10.63;7.50;;;;;;;17.62;73.12;100077.50;5054610;28;20110;-24
2021/06/17 02:14:16;;;;;;;12.98;7.65;;;;;;;17.66;72.57;100054.31;5070642;28;20035;-24
2021/06/17 02:16:42;;;;;;;11.77;7.50;;;;;;;17.85;71.86;100072.72;5088832;28;20415;-24
2021/06/17 02:19:08;;;;;;;15.27;7.63;;;;;;;17.69;72.04;100079.94;5089041;28;20027;-24
2021/06/17 02:21:33;;;;;;;11.95;7.45;;;;;;;17.57;72.45;100077.50;5070898;28;20393;-24
2021/06/17 02:23:59;;;;;;;13.00;7.43;;;;;;;17.14;74.71;100073.25;5070383;28;20031;-24
2021/06/17 02:26:25;;;;;;;14.05;7.45;;;;;;;17.19;75.11;100081.38;5053889;28;20039;-24
2021/06/17 02:28:51;;;;;;;12.65;7.43;;;;;;;17.24;74.45;100087.63;5088856;28;20028;-25
2021/06/17 02:31:23;;;;;;;13.55;7.20;;;;;;;16.97;75.28;100085.03;5054357;28;20031;-25
2021/06/17 02:33:49;;;;;;;11.80;7.95;;;;;;;16.79;75.99;100086.22;5054092;28;20032;-24
2021/06/17 02:36:15;;;;;;;15.25;7.03;;;;;;;16.53;76.75;100087.13;5088282;28;20032;-24
2021/06/17 02:38:41;;;;;;;17.95;7.72;;;;;;;16.48;76.44;100088.69;5070539;28;20107;-25
2021/06/17 02:41:08;;;;;;;16.85;7.07;;;;;;;16.38;75.75;100072.47;5070440;28;20032;-24
2021/06/17 02:43:36;;;;;;;20.15;7.45;;;;;;;16.58;75.71;100093.34;5070486;28;20024;-25
2021/06/17 02:46:02;;;;;;;19.77;7.90;;;;;;;16.37;77.23;100092.41;5070058;28;20121;-25
2021/06/17 02:48:27;;;;;;;23.80;7.20;;;;;;;16.47;75.28;100091.66;5070408;28;20468;-25
2021/06/17 02:50:53;;;;;;;17.70;7.25;;;;;;;16.37;75.89;100105.03;5088786;28;20032;-24
2021/06/17 02:53:18;;;;;;;15.50;6.78;;;;;;;16.56;76.73;100118.91;5088411;28;20024;-24
2021/06/17 02:55:44;;;;;;;15.50;7.20;;;;;;;16.32;75.83;100116.56;5087789;28;20039;-24
2021/06/17 02:58:19;;;;;;;20.38;11.93;;;;;;;16.39;75.74;100125.25;5070152;28;20028;-24
2021/06/17 03:00:53;;;;;;;31.98;21.02;;;;;;;16.10;76.39;100110.44;5088238;28;20072;-24
2021/06/17 03:03:38;;;;;;;34.63;25.73;;;;;;;16.36;76.63;100133.81;5070609;28;20087;-24
2021/06/17 03:06:33;;;;;;;32.65;21.30;;;;;;;16.47;75.72;100116.69;5070053;28;20157;-24
2021/06/17 03:08:59;;;;;;;18.10;13.07;;;;;;;16.92;75.85;100129.97;5085634;28;20732;-24
2021/06/17 03:11:26;;;;;;;18.83;8.63;;;;;;;16.69;75.81;100131.94;5070054;28;20075;-24
2021/06/17 03:13:55;;;;;;;13.18;7.55;;;;;;;16.73;74.90;100110.69;5087895;28;20028;-24
2021/06/17 03:16:23;;;;;;;10.90;6.85;;;;;;;16.86;76.11;100132.66;5053095;28;20041;-24
2021/06/17 03:18:49;;;;;;;15.25;7.00;;;;;;;17.04;74.10;100133.28;5069789;28;20054;-24
2021/06/17 03:21:14;;;;;;;12.52;7.00;;;;;;;17.06;73.87;100137.38;5053164;28;20032;-24
2021/06/17 03:23:41;;;;;;;19.17;7.30;;;;;;;17.02;74.28;100143.50;5052956;28;20028;-24
2021/06/17 03:26:07;;;;;;;18.50;7.60;;;;;;;17.28;73.17;100120.22;5069471;28;20516;-24
2021/06/17 03:28:32;;;;;;;15.43;6.97;;;;;;;17.49;72.51;100145.41;5069885;28;20590;-24
2021/06/17 03:30:58;;;;;;;15.07;6.78;;;;;;;17.52;71.66;100117.09;5069734;28;20032;-24
2021/06/17 03:33:27;;;;;;;14.10;7.15;;;;;;;17.48;72.63;100138.38;5053121;28;20062;-24
2021/06/17 03:35:53;;;;;;;20.30;6.60;;;;;;;17.33;72.34;100138.31;5069510;28;20035;-24
2021/06/17 03:38:19;;;;;;;16.48;7.28;;;;;;;16.83;73.93;100149.31;5069208;28;20032;-24
2021/06/17 03:40:45;;;;;;;18.23;7.70;;;;;;;17.09;73.12;100152.19;5087546;28;20032;-24
2021/06/17 03:43:12;;;;;;;17.63;8.90;;;;;;;16.75;73.68;100143.56;5052807;28;20104;-24
2021/06/17 03:45:42;;;;;;;20.88;8.45;;;;;;;16.27;75.81;100148.81;5069365;28;20115;-24
2021/06/17 03:48:08;;;;;;;18.27;8.75;;;;;;;15.86;78.02;100132.25;5069326;28;20028;-24
2021/06/17 03:50:33;;;;;;;18.77;7.93;;;;;;;16.05;78.02;100144.28;5069373;28;20803;-24
2021/06/17 03:52:59;;;;;;;14.07;8.23;;;;;;;16.25;78.16;100140.19;5052706;28;20055;-24
2021/06/17 03:55:24;;;;;;;16.55;8.00;;;;;;;16.53;76.54;100151.72;5087768;28;20419;-24
2021/06/17 03:57:51;;;;;;;18.52;8.75;;;;;;;16.96;74.75;100144.53;5052705;28;20120;-24
2021/06/17 04:00:16;;;;;;;17.85;8.73;;;;;;;17.43;73.17;100162.63;5069350;28;20024;-24
2021/06/17 04:02:42;;;;;;;14.10;8.85;;;;;;;17.05;74.59;100146.50;5087404;28;20027;-24
2021/06/17 04:05:08;;;;;;;12.40;8.00;;;;;;;17.08;74.86;100145.19;5087772;28;20403;-25
2021/06/17 04:07:35;;;;;;;13.10;8.07;;;;;;;17.14;74.96;100143.31;5090550;28;20046;-25
2021/06/17 04:10:00;;;;;;;16.60;7.70;;;;;;;17.50;73.58;100157.81;5056842;28;20028;-25
2021/06/17 04:12:28;;;;;;;14.20;8.45;;;;;;;17.24;74.69;100155.00;5091689;28;20775;-24
2021/06/17 04:14:54;;;;;;;13.57;8.00;;;;;;;16.97;75.62;100156.97;5073196;28;20076;-25
2021/06/17 04:17:22;;;;;;;14.52;8.68;;;;;;;17.16;75.55;100163.56;5056673;28;20085;-24
2021/06/17 04:19:47;;;;;;;18.15;8.63;;;;;;;17.26;75.00;100165.50;5073341;28;20074;-25
2021/06/17 04:22:14;;;;;;;14.20;8.40;;;;;;;17.44;74.75;100159.66;5056445;28;20036;-24
2021/06/17 04:24:41;;;;;;;16.20;9.00;;;;;;;17.48;73.94;100168.03;5072910;28;20039;-24
2021/06/17 04:27:07;;;;;;;14.55;8.70;;;;;;;17.29;74.47;100173.06;5056801;28;20032;-24
2021/06/17 04:29:37;;;;;;;12.82;8.82;;;;;;;17.11;75.41;100150.03;5056375;28;20035;-24
2021/06/17 04:32:03;;;;;;;16.27;9.60;;;;;;;17.62;73.83;100165.69;5091041;28;20038;-25
2021/06/17 04:34:28;;;;;;;18.48;9.98;;;;;;;18.01;72.74;100182.31;5091212;28;20028;-24
2021/06/17 04:36:53;;;;;;;14.57;9.90;;;;;;;17.95;73.04;100182.56;5090896;28;20043;-24
2021/06/17 04:39:23;;;;;;;12.85;8.88;;;;;;;17.72;74.03;100175.72;5072561;28;20028;-24
2021/06/17 04:41:48;;;;;;;14.65;9.55;;;;;;;17.53;75.68;100178.88;5073018;28;20043;-24
2021/06/17 04:44:14;;;;;;;11.73;8.73;;;;;;;17.97;74.49;100177.72;5072484;28;20396;-24
2021/06/17 04:46:39;;;;;;;12.45;8.65;;;;;;;18.33;73.90;100193.97;5072601;28;20043;-24
2021/06/17 04:49:09;;;;;;;13.95;8.82;;;;;;;18.22;74.09;100183.16;5055852;28;20024;-24
2021/06/17 04:51:35;;;;;;;12.05;7.38;;;;;;;18.38;73.21;100183.22;5056946;28;20028;-24
2021/06/17 04:54:01;;;;;;;12.32;8.15;;;;;;;18.67;71.74;100191.59;5090371;28;20040;-25
2021/06/17 04:56:26;;;;;;;12.57;8.60;;;;;;;18.81;72.96;100191.91;5090626;28;20032;-24
2021/06/17 04:58:52;;;;;;;12.30;8.65;;;;;;;19.01;72.31;100200.00;5090458;28;20023;-24
2021/06/17 05:01:18;;;;;;;15.18;9.52;;;;;;;19.42;71.21;100201.84;5090233;28;20036;-24
2021/06/17 05:03:46;;;;;;;12.52;9.00;;;;;;;19.05;70.79;100197.56;5090296;28;20028;-24
2021/06/17 05:06:14;;;;;;;15.18;8.63;;;;;;;19.38;70.18;100211.56;5090024;28;20105;-24
2021/06/17 05:11:25;;;;;;;13.30;8.90;;;;;;;19.34;71.02;100216.72;5090100;28;20089;-24
2021/06/17 05:13:50;;;;;;;14.98;9.18;;;;;;;19.20;72.22;100216.47;5089912;28;20039;-25
2021/06/17 05:16:16;;;;;;;14.93;9.13;;;;;;;19.31;71.13;100194.81;5090151;28;20048;-25
2021/06/17 05:18:41;;;;;;;14.23;10.68;;;;;;;19.39;71.50;100219.44;5088701;28;20169;-25
2021/06/17 05:21:07;;;;;;;12.27;9.05;;;;;;;19.67;70.29;100209.84;5089880;28;20502;-25
2021/06/17 05:23:34;;;;;;;31.02;19.10;;;;;;;19.48;71.49;100216.97;5090056;28;20036;-25
2021/06/17 05:26:00;;;;;;;16.37;10.13;;;;;;;19.92;70.38;100234.44;5090029;28;20431;-25
2021/06/17 05:28:26;;;;;;;29.67;19.42;;;;;;;20.04;69.15;100233.03;5089538;28;20265;-26
2021/06/17 05:30:52;;;;;;;13.23;8.45;;;;;;;20.44;68.16;100230.38;5089603;28;20028;-26
2021/06/17 05:33:18;;;;;;;16.70;11.55;;;;;;;20.57;68.10;100237.06;5089941;28;20059;-26
2021/06/17 05:35:44;;;;;;;14.27;9.57;;;;;;;20.73;67.50;100240.53;5090055;28;20059;-25
2021/06/17 05:38:10;;;;;;;9.77;7.25;;;;;;;20.58;67.84;100234.13;5089771;28;20190;-25
2021/06/17 05:40:35;;;;;;;11.82;6.88;;;;;;;20.46;68.58;100236.34;5089538;28;20032;-25
2021/06/17 05:43:01;;;;;;;23.45;15.68;;;;;;;20.83;68.00;100237.72;5089523;28;20032;-25
2021/06/17 05:45:26;;;;;;;13.35;6.70;;;;;;;20.71;68.15;100232.66;5089657;28;20464;-25
2021/06/17 05:47:51;;;;;;;10.40;7.35;;;;;;;20.90;67.53;100213.81;5089566;28;20035;-25
2021/06/17 05:50:17;;;;;;;16.83;11.18;;;;;;;20.98;67.82;100234.06;5089140;28;20560;-25
2021/06/17 05:52:43;;;;;;;9.98;6.78;;;;;;;20.97;68.33;100240.59;5089334;28;20028;-25
2021/06/17 05:55:09;;;;;;;11.15;8.55;;;;;;;21.28;69.08;100241.94;5089305;28;20043;-25
2021/06/17 05:57:35;;;;;;;12.00;9.02;;;;;;;21.38;67.85;100229.38;5089170;28;20028;-25
2021/06/17 06:00:01;;;;;;;13.07;8.02;;;;;;;21.50;68.34;100220.88;5088935;28;20093;-25
2021/06/17 06:02:27;;;;;;;12.77;6.80;;;;;;;21.91;65.73;100225.84;5089106;28;20024;-25
2021/06/17 06:04:52;;;;;;;15.02;10.73;;;;;;;21.80;66.03;100231.41;5088988;28;20028;-25
2021/06/17 06:07:18;;;;;;;11.10;7.07;;;;;;;21.57;65.44;100222.13;5088949;28;20502;-25
2021/06/17 06:09:43;;;;;;;9.35;6.65;;;;;;;21.32;65.79;100241.38;5089043;28;20066;-25
2021/06/17 06:12:10;;;;;;;10.40;6.93;;;;;;;21.17;66.76;100221.44;5088628;28;20055;-24
2021/06/17 06:14:36;;;;;;;8.73;6.10;;;;;;;21.07;66.78;100230.47;5088822;28;20037;-23
2021/06/17 06:17:02;;;;;;;9.73;6.35;;;;;;;21.24;66.86;100238.19;5088787;28;20056;-22
2021/06/17 06:19:29;;;;;;;10.82;6.10;;;;;;;21.19;65.63;100232.81;5088818;28;20800;-22
2021/06/17 06:21:55;;;;;;;9.27;6.07;;;;;;;21.14;65.60;100230.13;5088969;28;20046;-22
2021/06/17 06:24:20;;;;;;;8.23;6.20;;;;;;;21.38;66.20;100232.09;5088416;28;20036;-22
2021/06/17 06:26:46;;;;;;;9.90;6.40;;;;;;;21.48;65.21;100233.94;5088515;28;20065;-22
2021/06/17 06:29:12;;;;;;;9.00;6.03;;;;;;;21.71;64.06;100221.47;5088342;28;20034;-22
2021/06/17 06:31:38;;;;;;;8.98;5.45;;;;;;;21.37;63.16;100201.47;5070210;28;20032;-22
2021/06/17 06:34:04;;;;;;;11.15;6.90;;;;;;;21.48;63.43;100207.59;5088129;28;20080;-22
2021/06/17 06:36:29;;;;;;;10.23;6.22;;;;;;;21.42;62.99;100220.41;5088566;28;20499;-22
2021/06/17 06:38:55;;;;;;;9.27;6.30;;;;;;;21.90;62.65;100235.88;5088511;28;20065;-22
2021/06/17 06:41:20;;;;;;;8.45;6.50;;;;;;;22.26;63.53;100244.41;5088299;28;20035;-22
2021/06/17 06:43:46;;;;;;;9.02;6.43;;;;;;;22.09;62.67;100249.50;5088442;28;20065;-22
2021/06/17 06:46:11;;;;;;;8.13;5.90;;;;;;;22.03;62.18;100234.38;5088002;28;20035;-22
2021/06/17 06:48:37;;;;;;;8.68;6.32;;;;;;;21.83;62.92;100228.09;5088044;28;20141;-22
2021/06/17 06:51:02;;;;;;;8.55;6.28;;;;;;;21.65;63.90;100253.28;5088204;28;20071;-22
2021/06/17 06:53:28;;;;;;;7.53;5.97;;;;;;;21.69;64.24;100227.16;5088585;28;20071;-23
2021/06/17 06:55:53;;;;;;;8.02;6.03;;;;;;;22.19;64.06;100256.69;5088357;28;20032;-23
2021/06/17 06:58:19;;;;;;;8.20;5.78;;;;;;;22.36;61.81;100248.88;5070003;28;20035;-22
2021/06/17 07:00:44;;;;;;;8.70;5.78;;;;;;;22.15;60.91;100242.91;5088029;28;20036;-22
2021/06/17 07:03:11;;;;;;;8.10;6.05;;;;;;;22.15;62.07;100226.59;5087902;28;20407;-22
2021/06/17 07:05:36;;;;;;;7.97;5.18;;;;;;;22.46;61.68;100242.50;5087952;28;20040;-22
2021/06/17 07:08:08;;;;;;;9.90;5.38;;;;;;;22.71;61.16;100244.03;5087654;28;20032;-23
2021/06/17 07:10:33;;;;;;;9.18;5.18;;;;;;;22.79;60.76;100245.28;5088046;28;20103;-22
2021/06/17 07:12:59;;;;;;;8.10;5.18;;;;;;;22.55;60.03;100242.66;5088138;28;20040;-22
2021/06/17 07:15:24;;;;;;;7.55;5.07;;;;;;;22.75;60.38;100252.41;5087535;28;20499;-22
2021/06/17 07:17:50;;;;;;;9.00;6.28;;;;;;;22.89;58.52;100244.31;5087465;28;20052;-22
2021/06/17 07:20:15;;;;;;;8.60;4.85;;;;;;;22.74;59.17;100254.31;5087621;28;20028;-22
2021/06/17 07:22:40;;;;;;;9.38;5.80;;;;;;;22.74;60.13;100240.75;5087742;28;20040;-22
2021/06/17 07:25:06;;;;;;;9.65;4.95;;;;;;;23.01;58.59;100250.09;5087734;28;20039;-22
2021/06/17 07:27:32;;;;;;;6.47;4.95;;;;;;;22.80;60.19;100247.72;5087670;28;20028;-22
2021/06/17 07:29:57;;;;;;;6.60;5.05;;;;;;;23.14;57.63;100246.63;5087481;28;20024;-22
2021/06/17 07:32:23;;;;;;;8.10;6.03;;;;;;;23.81;57.92;100259.03;5086920;28;20035;-22
2021/06/17 07:34:48;;;;;;;8.00;4.90;;;;;;;24.01;57.77;100258.63;5087775;28;20032;-22
2021/06/17 07:37:14;;;;;;;10.00;4.90;;;;;;;24.06;57.14;100258.50;5087638;28;20393;-23
2021/06/17 07:39:40;;;;;;;9.35;5.57;;;;;;;24.15;57.83;100252.34;5087373;28;20492;-23
2021/06/17 07:42:05;;;;;;;9.73;5.32;;;;;;;24.49;55.90;100267.44;5087048;28;20036;-22
2021/06/17 07:44:31;;;;;;;6.93;4.70;;;;;;;24.15;55.78;100260.50;5087675;28;20516;-22
2021/06/17 07:46:56;;;;;;;7.63;5.03;;;;;;;23.83;58.01;100262.28;5087249;28;20039;-22
2021/06/17 07:49:22;;;;;;;7.80;4.53;;;;;;;23.85;57.62;100254.59;5087391;28;20017;-22
2021/06/17 07:51:48;;;;;;;6.68;4.85;;;;;;;23.69;58.63;100259.50;5087249;28;20035;-22
2021/06/17 07:54:18;;;;;;;7.75;5.47;;;;;;;23.79;58.96;100256.63;5087237;28;20081;-22
2021/06/17 07:56:43;;;;;;;7.80;4.90;;;;;;;23.92;58.47;100254.19;5087085;28;20510;-22
2021/06/17 07:59:09;;;;;;;9.30;5.53;;;;;;;24.07;58.28;100240.28;5087347;28;20024;-22
2021/06/17 08:01:34;;;;;;;11.48;5.85;;;;;;;24.18;58.20;100247.09;5087330;28;20036;-21
2021/06/17 08:04:06;;;;;;;7.65;4.93;;;;;;;24.56;57.29;100240.56;5087308;28;20040;-22
2021/06/17 08:06:32;;;;;;;7.15;5.22;;;;;;;24.97;57.37;100247.78;5087319;28;20388;-23
2021/06/17 08:08:59;;;;;;;9.35;5.10;;;;;;;25.32;55.67;100239.81;5086833;28;20538;-22
2021/06/17 08:11:24;;;;;;;6.85;4.88;;;;;;;25.33;54.48;100246.88;5085757;28;20040;-22
2021/06/17 08:13:49;;;;;;;6.25;4.57;;;;;;;25.47;54.16;100247.59;5087124;28;20419;-22
2021/06/17 08:16:15;;;;;;;6.45;5.00;;;;;;;25.54;54.04;100242.50;5086633;28;20039;-22
2021/06/17 08:18:40;;;;;;;59.58;7.38;;;;;;;25.61;52.02;100240.09;5087201;28;20055;-22
2021/06/17 08:21:06;;;;;;;7.70;4.40;;;;;;;25.93;50.28;100240.06;5069034;28;20036;-22
2021/06/17 08:23:32;;;;;;;5.40;4.15;;;;;;;25.64;50.44;100244.94;5087090;28;20032;-22
2021/06/17 08:25:57;;;;;;;10.32;4.72;;;;;;;25.92;50.99;100247.47;5086929;28;20030;-22
2021/06/17 08:28:26;;;;;;;8.13;4.63;;;;;;;25.89;50.76;100233.59;5086667;28;20111;-22
2021/06/17 08:30:52;;;;;;;5.90;4.40;;;;;;;26.00;49.54;100240.41;5087227;28;20039;-22
2021/06/17 08:33:17;;;;;;;5.30;3.78;;;;;;;26.16;48.16;100230.63;5069012;28;20036;-22
2021/06/17 08:35:42;;;;;;;7.63;4.13;;;;;;;26.01;48.95;100234.63;5086976;28;20753;-22
2021/06/17 08:38:09;;;;;;;6.95;4.60;;;;;;;26.39;49.32;100217.63;5086535;28;20032;-22
2021/06/17 08:40:34;;;;;;;7.40;4.20;;;;;;;26.35;47.73;100229.53;5086855;28;20039;-23
2021/06/17 08:43:00;;;;;;;6.63;4.53;;;;;;;26.45;48.08;100219.06;5086773;28;20097;-23
2021/06/17 08:45:29;;;;;;;7.10;4.28;;;;;;;26.80;48.60;100221.00;5087379;28;20028;-22
2021/06/17 08:47:54;;;;;;;5.63;4.07;;;;;;;26.98;45.49;100232.72;5086951;28;20086;-22
2021/06/17 08:50:20;;;;;;;5.80;3.75;;;;;;;27.30;45.86;100223.19;5086529;28;20063;-22
2021/06/17 08:52:45;;;;;;;5.93;3.92;;;;;;;27.43;45.11;100232.31;5086572;28;20038;-22
2021/06/17 08:55:12;;;;;;;6.70;4.35;;;;;;;27.75;44.35;100228.13;5072073;28;20085;-22
2021/06/17 08:57:38;;;;;;;10.90;4.30;;;;;;;28.22;45.07;100225.28;5071847;28;20039;-22
2021/06/17 09:10:08;;;;;;;5.82;3.65;;;;;;;27.83;45.85;100218.25;5090397;28;20034;-22
2021/06/17 09:12:44;;;;;;;5.53;4.07;;;;;;;27.95;43.68;100207.41;5090050;28;20111;-22
2021/06/17 09:15:10;;;;;;;6.30;3.72;;;;;;;27.75;45.78;100202.66;5072362;28;20032;-22
2021/06/17 09:17:36;;;;;;;5.30;3.80;;;;;;;27.68;44.98;100183.19;5071584;28;20052;-22
2021/06/17 09:20:02;;;;;;;5.60;4.20;;;;;;;27.53;45.55;100176.34;5089761;28;20468;-22
2021/06/17 09:22:27;;;;;;;5.80;4.05;;;;;;;27.78;45.75;100188.28;5089816;28;20036;-22
2021/06/17 09:24:54;;;;;;;4.85;3.83;;;;;;;27.80;42.71;100166.84;5071735;28;20055;-22
2021/06/17 09:27:35;;;;;;;4.55;3.58;;;;;;;28.11;43.24;100177.44;5090184;28;20042;-22
2021/06/17 09:30:09;;;;;;;3.95;3.08;;;;;;;27.96;40.66;100189.03;5089762;28;20435;-22
2021/06/17 09:32:34;;;;;;;5.97;3.63;;;;;;;28.35;43.95;100182.25;5089767;28;20028;-22
2021/06/17 09:35:00;;;;;;;5.65;3.58;;;;;;;28.54;41.58;100189.22;5089521;28;20097;-22
2021/06/17 09:37:27;;;;;;;5.30;2.78;;;;;;;28.54;36.87;100181.78;5071576;28;20036;-22
2021/06/17 09:39:52;;;;;;;5.22;3.15;;;;;;;28.62;38.06;100177.38;5071552;28;20097;-22
2021/06/17 09:42:19;;;;;;;4.60;3.13;;;;;;;28.66;36.30;100164.56;5089331;28;20503;-22
2021/06/17 09:44:44;;;;;;;7.55;4.43;;;;;;;29.22;34.39;100183.38;5089313;28;20077;-22
2021/06/17 09:47:24;;;;;;;4.00;2.40;;;;;;;28.65;33.91;100171.22;5089255;28;20036;-22
2021/06/17 09:49:51;;;;;;;3.33;2.60;;;;;;;29.27;33.78;100179.59;5089568;28;20836;-22
2021/06/17 09:52:20;;;;;;;6.82;2.60;;;;;;;29.67;33.65;100192.63;5089613;28;20362;-22
2021/06/17 09:54:46;;;;;;;3.90;2.60;;;;;;;29.71;34.89;100182.56;5071512;28;20035;-23
2021/06/17 09:57:18;;;;;;;2.78;2.28;;;;;;;29.50;33.51;100172.47;5089250;28;20103;-23
2021/06/17 09:59:54;;;;;;;3.83;2.20;;;;;;;28.99;32.46;100185.69;5089064;28;20024;-22
2021/06/17 10:02:23;;;;;;;2.67;2.08;;;;;;;29.19;31.48;100175.81;5089096;28;20272;-22
2021/06/17 10:04:48;;;;;;;2.97;2.20;;;;;;;29.15;31.28;100172.13;5088618;28;20044;-22
2021/06/17 10:07:16;;;;;;;3.80;2.30;;;;;;;29.11;33.71;100168.47;5088967;28;20115;-22
2021/06/17 10:09:47;;;;;;;3.38;1.83;;;;;;;29.39;30.61;100155.66;5088907;28;20510;-22
2021/06/17 10:12:13;;;;;;;3.50;2.10;;;;;;;29.79;31.71;100154.16;5071367;28;20031;-21
2021/06/17 10:14:38;;;;;;;3.42;2.03;;;;;;;30.27;32.88;100163.44;5088627;28;20028;-22
2021/06/17 10:17:04;;;;;;;2.67;1.90;;;;;;;30.15;29.80;100152.47;5088394;28;20051;-21
2021/06/17 10:19:31;;;;;;;2.40;1.80;;;;;;;30.57;29.90;100147.41;5088695;28;20491;-22
2021/06/17 10:21:57;;;;;;;;;;;;;;;30.86;29.67;100147.34;5089135;28;20483;-23
2021/06/17 10:24:23;;;;;;;2.43;1.77;;;;;;;30.95;28.58;100132.25;5088179;28;19918;-24
2021/06/17 10:26:51;;;;;;;4.82;2.05;;;;;;;31.35;29.26;100136.78;5088486;28;20028;-24
2021/06/17 10:29:36;;;;;;;;;;;;;;;31.49;28.69;100141.03;5089071;28;20035;-24
2021/06/17 10:32:03;;;;;;;2.85;1.88;;;;;;;31.55;28.04;100129.41;5087763;28;20309;-22
2021/06/17 10:34:29;;;;;;;2.93;1.90;;;;;;;31.80;28.33;100134.66;5088554;28;20021;-22
2021/06/17 10:37:14;;;;;;;3.25;1.90;;;;;;;31.39;30.06;100129.41;5088540;28;20531;-21
2021/06/17 10:39:47;;;;;;;4.50;2.10;;;;;;;31.31;29.26;100107.56;5088595;28;20028;-22
2021/06/17 10:42:14;;;;;;;3.65;2.28;;;;;;;31.48;28.42;100118.19;5088161;28;20067;-22
2021/06/17 10:44:45;;;;;;;3.55;2.40;;;;;;;31.56;29.90;100119.97;5088331;28;20020;-22
2021/06/17 10:47:53;;;;;;;2.70;2.00;;;;;;;31.89;26.35;100126.97;5088199;28;20118;-21
2021/06/17 10:50:33;;;;;;;4.07;2.00;;;;;;;31.77;29.55;100116.06;5086169;28;20543;-22
2021/06/17 10:53:24;;;;;;;2.85;2.03;;;;;;;31.91;29.19;100102.59;5088027;28;20050;-22
2021/06/17 10:55:50;;;;;;;2.38;1.95;;;;;;;31.25;30.96;100104.28;5087770;28;20032;-22
2021/06/17 10:58:16;;;;;;;2.47;2.00;;;;;;;31.08;29.91;100099.13;5087825;28;20028;-22
2021/06/17 11:00:46;;;;;;;3.25;1.98;;;;;;;31.16;29.74;100096.22;5070231;28;20449;-22
2021/06/17 11:03:11;;;;;;;6.28;2.20;;;;;;;31.60;29.54;100093.28;5087934;28;20069;-22
2021/06/17 11:05:41;;;;;;;6.78;2.25;;;;;;;31.56;28.77;100102.63;5069598;28;20512;-22
2021/06/17 11:08:26;;;;;;;4.28;1.90;;;;;;;31.72;27.33;100100.63;5087633;28;20027;-22
2021/06/17 11:11:07;;;;;;;5.00;2.13;;;;;;;32.47;27.74;100086.72;5087702;28;20036;-22
2021/06/17 11:13:51;;;;;;;6.15;1.98;;;;;;;32.74;30.12;100080.16;5087584;28;20024;-22
2021/06/17 11:16:17;;;;;;;3.28;2.00;;;;;;;32.14;28.82;100090.84;5087242;28;20851;-23
2021/06/17 11:18:46;;;;;;;3.97;2.22;;;;;;;32.23;28.09;100085.91;5087556;28;20048;-22
2021/06/17 11:21:21;;;;;;;3.03;2.17;;;;;;;31.96;27.57;100087.72;5087692;28;20056;-23
2021/06/17 11:23:52;;;;;;;5.20;2.30;;;;;;;32.06;27.53;100070.63;5087541;28;20036;-22
2021/06/17 11:26:36;;;;;;;2.50;1.98;;;;;;;32.36;26.78;100083.78;5087407;28;20026;-22
2021/06/17 11:29:03;;;;;;;2.83;2.20;;;;;;;32.26;27.39;100076.88;5087728;28;20039;-22
2021/06/17 11:31:41;;;;;;;3.03;2.00;;;;;;;32.05;29.24;100079.25;5069571;28;20560;-22
2021/06/17 11:34:07;;;;;;;3.50;2.30;;;;;;;31.29;28.90;100069.34;5087628;28;20272;-22
2021/06/17 11:36:33;;;;;;;4.47;2.38;;;;;;;31.06;30.72;100069.22;5087753;28;20054;-22
2021/06/17 11:39:04;;;;;;;3.47;2.50;;;;;;;31.41;30.05;100077.47;5087464;28;20515;-22